sensor_id;sensor_type;location;lat;lon;timestamp;pressure;altitude;pressure_sealevel;temperature;humidity
46291;BME280;32023;44.444;26.006;2023-09-07T00:00:37;101011.84;;;20.36;39.41
46291;BME280;32023;44.444;26.006;2023-09-07T00:03:04;101011.03;;;20.36;39.68
46291;BME280;32023;44.444;26.006;2023-09-07T00:05:35;101018.91;;;20.34;39.97
46291;BME280;32023;44.444;26.006;2023-09-07T00:08:09;101015.38;;;20.28;40.23
46291;BME280;32023;44.444;26.006;2023-09-07T00:10:36;101015.44;;;20.23;40.39
46291;BME280;32023;44.444;26.006;2023-09-07T00:13:03;101017.50;;;20.17;40.79
46291;BME280;32023;44.444;26.006;2023-09-07T00:15:34;101022.38;;;20.12;40.85
46291;BME280;32023;44.444;26.006;2023-09-07T00:18:05;101016.03;;;20.06;40.96
46291;BME280;32023;44.444;26.006;2023-09-07T00:20:31;101021.72;;;20.01;41.34
46291;BME280;32023;44.444;26.006;2023-09-07T00:23:00;101015.91;;;19.98;41.47
46291;BME280;32023;44.444;26.006;2023-09-07T00:25:27;101024.69;;;19.91;41.76
46291;BME280;32023;44.444;26.006;2023-09-07T00:28:04;101018.66;;;19.84;41.84
46291;BME280;32023;44.444;26.006;2023-09-07T00:30:30;101010.34;;;19.79;42.13
46291;BME280;32023;44.444;26.006;2023-09-07T00:32:57;101007.34;;;19.76;42.30
46291;BME280;32023;44.444;26.006;2023-09-07T00:35:23;101011.59;;;19.73;42.75
46291;BME280;32023;44.444;26.006;2023-09-07T00:38:16;101015.06;;;19.65;42.93
46291;BME280;32023;44.444;26.006;2023-09-07T00:40:45;101012.38;;;19.60;43.34
46291;BME280;32023;44.444;26.006;2023-09-07T00:43:11;101019.38;;;19.57;43.51
46291;BME280;32023;44.444;26.006;2023-09-07T00:45:49;101018.66;;;19.52;43.80
46291;BME280;32023;44.444;26.006;2023-09-07T00:48:18;101016.53;;;19.44;44.16
46291;BME280;32023;44.444;26.006;2023-09-07T00:50:45;101010.69;;;19.40;44.34
46291;BME280;32023;44.444;26.006;2023-09-07T00:53:13;101015.50;;;19.35;44.51
46291;BME280;32023;44.444;26.006;2023-09-07T00:55:40;101007.22;;;19.30;44.53
46291;BME280;32023;44.444;26.006;2023-09-07T00:58:10;101008.41;;;19.23;44.59
46291;BME280;32023;44.444;26.006;2023-09-07T01:00:40;101014.63;;;19.20;44.64
46291;BME280;32023;44.444;26.006;2023-09-07T01:03:07;101010.47;;;19.18;44.85
46291;BME280;32023;44.444;26.006;2023-09-07T01:05:41;101015.00;;;19.14;45.03
46291;BME280;32023;44.444;26.006;2023-09-07T01:08:25;101010.59;;;19.08;45.04
46291;BME280;32023;44.444;26.006;2023-09-07T01:10:53;101033.03;;;19.03;45.45
46291;BME280;32023;44.444;26.006;2023-09-07T01:13:20;101021.31;;;19.01;45.52
46291;BME280;32023;44.444;26.006;2023-09-07T01:15:47;101028.94;;;18.95;45.64
46291;BME280;32023;44.444;26.006;2023-09-07T01:18:15;101024.75;;;18.93;45.51
46291;BME280;32023;44.444;26.006;2023-09-07T01:20:44;101024.53;;;18.89;45.97
46291;BME280;32023;44.444;26.006;2023-09-07T01:23:12;101023.47;;;18.85;46.17
46291;BME280;32023;44.444;26.006;2023-09-07T01:25:41;101022.94;;;18.83;46.33
46291;BME280;32023;44.444;26.006;2023-09-07T01:28:11;101014.63;;;18.78;46.33
46291;BME280;32023;44.444;26.006;2023-09-07T01:30:55;101018.63;;;18.72;46.36
46291;BME280;32023;44.444;26.006;2023-09-07T01:33:22;101011.97;;;18.68;46.30
46291;BME280;32023;44.444;26.006;2023-09-07T01:35:51;101022.06;;;18.64;45.99
46291;BME280;32023;44.444;26.006;2023-09-07T01:38:23;101015.94;;;18.62;46.08
46291;BME280;32023;44.444;26.006;2023-09-07T01:40:49;101013.22;;;18.57;46.39
46291;BME280;32023;44.444;26.006;2023-09-07T01:43:17;101018.81;;;18.57;46.31
46291;BME280;32023;44.444;26.006;2023-09-07T01:45:49;101014.94;;;18.53;46.23
46291;BME280;32023;44.444;26.006;2023-09-07T01:48:17;101013.84;;;18.49;46.52
46291;BME280;32023;44.444;26.006;2023-09-07T01:51:00;101020.03;;;18.46;46.78
46291;BME280;32023;44.444;26.006;2023-09-07T01:53:26;101035.09;;;18.45;46.96
46291;BME280;32023;44.444;26.006;2023-09-07T01:55:56;101028.16;;;18.42;46.96
46291;BME280;32023;44.444;26.006;2023-09-07T01:58:30;101019.56;;;18.39;47.06
46291;BME280;32023;44.444;26.006;2023-09-07T02:00:59;101022.91;;;18.36;46.97
46291;BME280;32023;44.444;26.006;2023-09-07T02:03:27;101009.41;;;18.24;47.16
46291;BME280;32023;44.444;26.006;2023-09-07T02:05:56;101024.66;;;18.32;47.25
46291;BME280;32023;44.444;26.006;2023-09-07T02:08:28;101026.38;;;18.27;47.23
46291;BME280;32023;44.444;26.006;2023-09-07T02:11:02;101018.00;;;18.27;47.26
46291;BME280;32023;44.444;26.006;2023-09-07T02:13:29;101027.25;;;18.23;47.38
46291;BME280;32023;44.444;26.006;2023-09-07T02:16:11;101023.91;;;18.21;47.31
46291;BME280;32023;44.444;26.006;2023-09-07T02:18:44;101026.16;;;18.19;47.49
46291;BME280;32023;44.444;26.006;2023-09-07T02:21:30;101017.00;;;18.13;47.58
46291;BME280;32023;44.444;26.006;2023-09-07T02:23:59;101014.78;;;18.15;47.46
46291;BME280;32023;44.444;26.006;2023-09-07T02:26:27;101022.59;;;18.13;47.65
46291;BME280;32023;44.444;26.006;2023-09-07T02:28:54;101014.22;;;18.13;47.75
46291;BME280;32023;44.444;26.006;2023-09-07T02:31:21;101021.75;;;18.13;47.96
46291;BME280;32023;44.444;26.006;2023-09-07T02:33:50;101023.19;;;18.10;47.99
46291;BME280;32023;44.444;26.006;2023-09-07T02:36:24;101013.47;;;18.08;48.03
46291;BME280;32023;44.444;26.006;2023-09-07T02:38:53;101009.28;;;18.05;48.29
46291;BME280;32023;44.444;26.006;2023-09-07T02:41:23;101017.94;;;18.04;48.23
46291;BME280;32023;44.444;26.006;2023-09-07T02:43:49;101018.31;;;17.97;48.36
46291;BME280;32023;44.444;26.006;2023-09-07T02:46:15;101019.69;;;17.95;48.38
46291;BME280;32023;44.444;26.006;2023-09-07T02:48:44;101027.22;;;17.94;48.50
46291;BME280;32023;44.444;26.006;2023-09-07T02:51:14;101017.78;;;17.90;48.49
46291;BME280;32023;44.444;26.006;2023-09-07T02:53:42;101019.44;;;17.91;48.57
46291;BME280;32023;44.444;26.006;2023-09-07T02:56:08;101030.91;;;17.90;48.58
46291;BME280;32023;44.444;26.006;2023-09-07T02:58:37;101027.56;;;17.88;48.83
46291;BME280;32023;44.444;26.006;2023-09-07T03:01:06;101026.22;;;17.85;48.95
46291;BME280;32023;44.444;26.006;2023-09-07T03:03:36;101028.44;;;17.83;48.96
46291;BME280;32023;44.444;26.006;2023-09-07T03:06:10;101023.47;;;17.80;48.96
46291;BME280;32023;44.444;26.006;2023-09-07T03:08:41;101025.72;;;17.78;49.15
46291;BME280;32023;44.444;26.006;2023-09-07T03:11:08;101023.22;;;17.76;49.13
46291;BME280;32023;44.444;26.006;2023-09-07T03:13:38;101024.88;;;17.77;49.08
46291;BME280;32023;44.444;26.006;2023-09-07T03:16:06;101026.28;;;17.75;49.17
46291;BME280;32023;44.444;26.006;2023-09-07T03:18:32;101026.28;;;17.75;49.01
46291;BME280;32023;44.444;26.006;2023-09-07T03:21:01;101027.09;;;17.75;49.12
46291;BME280;32023;44.444;26.006;2023-09-07T03:23:28;101030.22;;;17.74;49.21
46291;BME280;32023;44.444;26.006;2023-09-07T03:25:58;101030.22;;;17.74;49.26
46291;BME280;32023;44.444;26.006;2023-09-07T03:28:24;101030.47;;;17.72;49.26
46291;BME280;32023;44.444;26.006;2023-09-07T03:30:52;101034.09;;;17.73;49.41
46291;BME280;32023;44.444;26.006;2023-09-07T03:33:21;101039.69;;;17.73;49.37
46291;BME280;32023;44.444;26.006;2023-09-07T03:35:51;101034.94;;;17.73;49.52
46291;BME280;32023;44.444;26.006;2023-09-07T03:38:27;101029.13;;;17.70;49.70
46291;BME280;32023;44.444;26.006;2023-09-07T03:40:53;101037.75;;;17.68;49.84
46291;BME280;32023;44.444;26.006;2023-09-07T03:43:19;101039.19;;;17.66;49.81
46291;BME280;32023;44.444;26.006;2023-09-07T03:45:46;101036.97;;;17.63;49.84
46291;BME280;32023;44.444;26.006;2023-09-07T03:48:15;101039.53;;;17.59;49.89
46291;BME280;32023;44.444;26.006;2023-09-07T03:50:45;101041.47;;;17.59;49.88
46291;BME280;32023;44.444;26.006;2023-09-07T03:53:12;101044.25;;;17.59;49.77
46291;BME280;32023;44.444;26.006;2023-09-07T03:55:43;101042.56;;;17.58;49.94
46291;BME280;32023;44.444;26.006;2023-09-07T03:58:10;101045.38;;;17.58;49.83
46291;BME280;32023;44.444;26.006;2023-09-07T04:00:40;101053.44;;;17.59;49.73
46291;BME280;32023;44.444;26.006;2023-09-07T04:03:10;101051.50;;;17.60;49.79
46291;BME280;32023;44.444;26.006;2023-09-07T04:05:40;101045.94;;;17.60;49.88
46291;BME280;32023;44.444;26.006;2023-09-07T04:08:08;101047.56;;;17.61;49.90
46291;BME280;32023;44.444;26.006;2023-09-07T04:10:55;101057.06;;;17.60;49.84
46291;BME280;32023;44.444;26.006;2023-09-07T04:13:22;101050.06;;;17.62;49.94
46291;BME280;32023;44.444;26.006;2023-09-07T04:15:49;101057.31;;;17.63;49.79
46291;BME280;32023;44.444;26.006;2023-09-07T04:18:15;101061.47;;;17.66;49.77
46291;BME280;32023;44.444;26.006;2023-09-07T04:20:49;101062.56;;;17.70;49.78
46291;BME280;32023;44.444;26.006;2023-09-07T04:23:15;101061.97;;;17.73;49.77
46291;BME280;32023;44.444;26.006;2023-09-07T04:25:43;101063.63;;;17.74;49.64
46291;BME280;32023;44.444;26.006;2023-09-07T04:28:13;101064.72;;;17.78;49.62
46291;BME280;32023;44.444;26.006;2023-09-07T04:30:50;101065.81;;;17.82;49.60
46291;BME280;32023;44.444;26.006;2023-09-07T04:33:16;101061.31;;;17.86;49.43
46291;BME280;32023;44.444;26.006;2023-09-07T04:35:50;101060.13;;;17.92;49.28
46291;BME280;32023;44.444;26.006;2023-09-07T04:38:16;101067.31;;;17.98;49.14
46291;BME280;32023;44.444;26.006;2023-09-07T04:44:02;101073.06;;;18.12;48.74
46291;BME280;32023;44.444;26.006;2023-09-07T04:46:57;101072.13;;;18.21;48.56
46291;BME280;32023;44.444;26.006;2023-09-07T04:52:32;101076.97;;;18.40;48.31
46291;BME280;32023;44.444;26.006;2023-09-07T04:55:01;101079.13;;;18.48;48.12
46291;BME280;32023;44.444;26.006;2023-09-07T04:57:31;101079.06;;;18.58;47.84
46291;BME280;32023;44.444;26.006;2023-09-07T05:00:25;101083.69;;;18.67;47.90
46291;BME280;32023;44.444;26.006;2023-09-07T05:03:02;101084.38;;;18.78;47.74
46291;BME280;32023;44.444;26.006;2023-09-07T05:05:29;101092.91;;;18.92;47.67
46291;BME280;32023;44.444;26.006;2023-09-07T05:07:58;101087.69;;;19.04;47.19
46291;BME280;32023;44.444;26.006;2023-09-07T05:10:25;101087.81;;;19.17;46.98
46291;BME280;32023;44.444;26.006;2023-09-07T05:12:51;101087.28;;;19.34;46.81
46291;BME280;32023;44.444;26.006;2023-09-07T05:15:17;101098.06;;;19.46;46.72
46291;BME280;32023;44.444;26.006;2023-09-07T05:17:53;101089.22;;;19.57;45.92
46291;BME280;32023;44.444;26.006;2023-09-07T05:20:26;101096.88;;;19.70;45.82
46291;BME280;32023;44.444;26.006;2023-09-07T05:23:01;101093.84;;;19.86;45.46
46291;BME280;32023;44.444;26.006;2023-09-07T05:25:28;101088.28;;;19.99;45.18
46291;BME280;32023;44.444;26.006;2023-09-07T05:28:04;101093.56;;;20.19;44.88
46291;BME280;32023;44.444;26.006;2023-09-07T05:30:30;101094.03;;;20.40;44.28
46291;BME280;32023;44.444;26.006;2023-09-07T05:33:06;101102.19;;;20.69;43.29
46291;BME280;32023;44.444;26.006;2023-09-07T05:35:35;101098.88;;;20.94;42.91
46291;BME280;32023;44.444;26.006;2023-09-07T05:38:03;101092.91;;;21.15;42.08
46291;BME280;32023;44.444;26.006;2023-09-07T05:40:40;101106.16;;;21.36;41.62
46291;BME280;32023;44.444;26.006;2023-09-07T05:43:11;101104.03;;;21.55;40.82
46291;BME280;32023;44.444;26.006;2023-09-07T05:45:39;101101.06;;;21.74;40.46
46291;BME280;32023;44.444;26.006;2023-09-07T05:48:09;101098.31;;;21.96;39.88
46291;BME280;32023;44.444;26.006;2023-09-07T05:50:38;101100.75;;;22.12;39.41
46291;BME280;32023;44.444;26.006;2023-09-07T05:53:10;101103.28;;;22.22;38.96
46291;BME280;32023;44.444;26.006;2023-09-07T05:56:05;101100.72;;;22.34;38.79
46291;BME280;32023;44.444;26.006;2023-09-07T05:58:33;101104.72;;;22.41;38.57
46291;BME280;32023;44.444;26.006;2023-09-07T06:01:05;101115.69;;;22.51;38.25
46291;BME280;32023;44.444;26.006;2023-09-07T06:03:32;101098.59;;;22.62;38.17
46291;BME280;32023;44.444;26.006;2023-09-07T06:06:01;101104.13;;;22.75;37.96
46291;BME280;32023;44.444;26.006;2023-09-07T06:08:31;101104.84;;;22.89;37.90
46291;BME280;32023;44.444;26.006;2023-09-07T06:10:58;101103.91;;;23.02;37.67
46291;BME280;32023;44.444;26.006;2023-09-07T06:13:25;101114.03;;;23.21;37.58
46291;BME280;32023;44.444;26.006;2023-09-07T06:15:55;101111.09;;;23.34;37.13
46291;BME280;32023;44.444;26.006;2023-09-07T06:18:21;101116.13;;;23.46;37.10
46291;BME280;32023;44.444;26.006;2023-09-07T06:20:47;101112.69;;;23.66;37.01
46291;BME280;32023;44.444;26.006;2023-09-07T06:23:17;101116.69;;;23.82;36.51
46291;BME280;32023;44.444;26.006;2023-09-07T06:26:35;101108.72;;;24.02;36.42
46291;BME280;32023;44.444;26.006;2023-09-07T06:29:18;101114.53;;;24.31;35.66
46291;BME280;32023;44.444;26.006;2023-09-07T06:32:02;101111.97;;;24.55;35.32
46291;BME280;32023;44.444;26.006;2023-09-07T06:34:29;101110.25;;;24.80;35.26
46291;BME280;32023;44.444;26.006;2023-09-07T06:37:05;101119.47;;;24.98;34.06
46291;BME280;32023;44.444;26.006;2023-09-07T06:40:07;101120.88;;;25.21;33.97
46291;BME280;32023;44.444;26.006;2023-09-07T06:42:39;101114.25;;;25.46;33.47
46291;BME280;32023;44.444;26.006;2023-09-07T06:45:21;101123.47;;;25.64;32.94
46291;BME280;32023;44.444;26.006;2023-09-07T06:47:52;101118.66;;;25.85;32.85
46291;BME280;32023;44.444;26.006;2023-09-07T06:50:33;101118.91;;;25.92;32.83
46291;BME280;32023;44.444;26.006;2023-09-07T06:53:02;101121.19;;;25.99;32.30
46291;BME280;32023;44.444;26.006;2023-09-07T06:55:56;101123.47;;;26.05;32.04
46291;BME280;32023;44.444;26.006;2023-09-07T06:58:36;101123.38;;;26.14;32.17
46291;BME280;32023;44.444;26.006;2023-09-07T07:01:15;101131.94;;;26.26;31.85
46291;BME280;32023;44.444;26.006;2023-09-07T07:03:41;101122.81;;;26.41;31.87
46291;BME280;32023;44.444;26.006;2023-09-07T07:06:08;101118.03;;;26.54;31.80
46291;BME280;32023;44.444;26.006;2023-09-07T07:08:39;101120.75;;;26.50;31.82
46291;BME280;32023;44.444;26.006;2023-09-07T07:11:06;101122.69;;;26.38;32.01
46291;BME280;32023;44.444;26.006;2023-09-07T07:13:32;101112.28;;;26.29;31.69
46291;BME280;32023;44.444;26.006;2023-09-07T07:15:58;101118.84;;;26.21;31.76
46291;BME280;32023;44.444;26.006;2023-09-07T07:18:28;101109.13;;;26.31;31.92
46291;BME280;32023;44.444;26.006;2023-09-07T07:24:11;101117.81;;;26.59;31.27
46291;BME280;32023;44.444;26.006;2023-09-07T07:26:40;101110.88;;;26.68;31.41
46291;BME280;32023;44.444;26.006;2023-09-07T07:29:06;101128.22;;;26.79;31.22
46291;BME280;32023;44.444;26.006;2023-09-07T07:31:35;101130.47;;;26.86;31.00
46291;BME280;32023;44.444;26.006;2023-09-07T07:34:02;101127.66;;;26.86;31.26
46291;BME280;32023;44.444;26.006;2023-09-07T07:36:28;101118.97;;;26.91;30.58
46291;BME280;32023;44.444;26.006;2023-09-07T07:38:55;101117.22;;;26.98;30.21
46291;BME280;32023;44.444;26.006;2023-09-07T07:41:21;101105.78;;;27.07;30.07
46291;BME280;32023;44.444;26.006;2023-09-07T07:43:47;101100.25;;;27.10;29.92
46291;BME280;32023;44.444;26.006;2023-09-07T07:46:17;101109.78;;;27.06;29.80
46291;BME280;32023;44.444;26.006;2023-09-07T07:48:45;101085.06;;;27.15;29.93
46291;BME280;32023;44.444;26.006;2023-09-07T07:51:12;101113.44;;;27.67;29.56
46291;BME280;32023;44.444;26.006;2023-09-07T07:53:41;101119.84;;;27.92;29.59
46291;BME280;32023;44.444;26.006;2023-09-07T07:56:18;101112.03;;;28.01;28.33
46291;BME280;32023;44.444;26.006;2023-09-07T07:58:47;101112.13;;;28.16;28.46
46291;BME280;32023;44.444;26.006;2023-09-07T08:01:18;101108.84;;;28.58;27.82
46291;BME280;32023;44.444;26.006;2023-09-07T08:03:44;101104.16;;;28.93;27.16
46291;BME280;32023;44.444;26.006;2023-09-07T08:06:11;101103.31;;;29.24;27.05
46291;BME280;32023;44.444;26.006;2023-09-07T08:08:45;101098.47;;;29.40;26.26
46291;BME280;32023;44.444;26.006;2023-09-07T08:11:11;101093.69;;;29.60;26.52
46291;BME280;32023;44.444;26.006;2023-09-07T08:13:39;101094.97;;;29.82;25.62
46291;BME280;32023;44.444;26.006;2023-09-07T08:16:13;101096.06;;;29.93;25.77
46291;BME280;32023;44.444;26.006;2023-09-07T08:18:39;101098.00;;;30.27;25.24
46291;BME280;32023;44.444;26.006;2023-09-07T08:21:06;101095.72;;;30.55;24.87
46291;BME280;32023;44.444;26.006;2023-09-07T08:23:35;101098.75;;;30.85;24.42
46291;BME280;32023;44.444;26.006;2023-09-07T08:26:02;101105.53;;;31.00;24.29
46291;BME280;32023;44.444;26.006;2023-09-07T08:28:31;101096.09;;;31.19;23.68
46291;BME280;32023;44.444;26.006;2023-09-07T08:30:58;101102.59;;;31.19;23.57
46291;BME280;32023;44.444;26.006;2023-09-07T08:33:29;101101.56;;;31.31;23.64
46291;BME280;32023;44.444;26.006;2023-09-07T08:36:00;101094.81;;;31.42;23.43
46291;BME280;32023;44.444;26.006;2023-09-07T08:38:27;101110.09;;;31.54;23.36
46291;BME280;32023;44.444;26.006;2023-09-07T08:41:01;101102.34;;;31.54;23.10
46291;BME280;32023;44.444;26.006;2023-09-07T08:43:33;101101.16;;;31.55;23.47
46291;BME280;32023;44.444;26.006;2023-09-07T08:46:16;101106.47;;;31.57;23.38
46291;BME280;32023;44.444;26.006;2023-09-07T08:48:52;101098.44;;;31.39;23.37
46291;BME280;32023;44.444;26.006;2023-09-07T08:51:19;101090.06;;;31.01;23.70
46291;BME280;32023;44.444;26.006;2023-09-07T08:53:49;101097.03;;;30.81;23.95
46291;BME280;32023;44.444;26.006;2023-09-07T08:56:17;101097.06;;;30.62;24.36
46291;BME280;32023;44.444;26.006;2023-09-07T08:58:48;101085.44;;;30.28;24.63
46291;BME280;32023;44.444;26.006;2023-09-07T09:01:20;101078.13;;;30.08;24.14
46291;BME280;32023;44.444;26.006;2023-09-07T09:03:55;101082.00;;;30.00;24.85
46291;BME280;32023;44.444;26.006;2023-09-07T09:06:25;101051.34;;;29.90;24.66
46291;BME280;32023;44.444;26.006;2023-09-07T09:08:59;101083.38;;;30.06;24.45
46291;BME280;32023;44.444;26.006;2023-09-07T09:11:35;101078.88;;;29.86;24.53
46291;BME280;32023;44.444;26.006;2023-09-07T09:14:06;101071.09;;;30.02;24.17
46291;BME280;32023;44.444;26.006;2023-09-07T09:16:33;101078.47;;;30.06;24.09
46291;BME280;32023;44.444;26.006;2023-09-07T09:19:31;101079.00;;;30.12;23.99
46291;BME280;32023;44.444;26.006;2023-09-07T09:22:01;101074.81;;;30.44;23.98
46291;BME280;32023;44.444;26.006;2023-09-07T09:24:32;101072.31;;;30.85;23.64
46291;BME280;32023;44.444;26.006;2023-09-07T09:27:00;101059.59;;;30.56;23.51
46291;BME280;32023;44.444;26.006;2023-09-07T09:29:35;101049.69;;;30.27;23.93
46291;BME280;32023;44.444;26.006;2023-09-07T09:32:05;101051.03;;;30.14;24.08
46291;BME280;32023;44.444;26.006;2023-09-07T09:34:36;101047.66;;;30.47;23.94
46291;BME280;32023;44.444;26.006;2023-09-07T09:37:13;101045.44;;;31.05;23.14
46291;BME280;32023;44.444;26.006;2023-09-07T09:39:42;101051.97;;;31.58;22.35
46291;BME280;32023;44.444;26.006;2023-09-07T09:42:17;101048.72;;;32.19;21.88
46291;BME280;32023;44.444;26.006;2023-09-07T09:45:07;101053.59;;;33.00;21.35
46291;BME280;32023;44.444;26.006;2023-09-07T09:47:44;101024.59;;;33.49;20.63
46291;BME280;32023;44.444;26.006;2023-09-07T09:50:17;101034.91;;;33.64;20.31
46291;BME280;32023;44.444;26.006;2023-09-07T09:53:12;101031.31;;;33.12;20.52
46291;BME280;32023;44.444;26.006;2023-09-07T09:55:50;101011.19;;;32.98;20.45
46291;BME280;32023;44.444;26.006;2023-09-07T09:58:23;101019.44;;;33.68;20.47
46291;BME280;32023;44.444;26.006;2023-09-07T10:00:53;101038.75;;;34.00;20.04
46291;BME280;32023;44.444;26.006;2023-09-07T10:03:47;101027.94;;;34.97;18.84
46291;BME280;32023;44.444;26.006;2023-09-07T10:06:31;101033.97;;;35.59;18.71
46291;BME280;32023;44.444;26.006;2023-09-07T10:09:04;101032.97;;;36.08;18.40
46291;BME280;32023;44.444;26.006;2023-09-07T10:11:39;101024.88;;;35.89;18.19
46291;BME280;32023;44.444;26.006;2023-09-07T10:14:07;101039.69;;;35.70;18.18
46291;BME280;32023;44.444;26.006;2023-09-07T10:16:48;101032.34;;;35.62;18.05
46291;BME280;32023;44.444;26.006;2023-09-07T10:19:26;101022.88;;;35.79;18.02
46291;BME280;32023;44.444;26.006;2023-09-07T10:22:01;101026.19;;;35.60;18.20
46291;BME280;32023;44.444;26.006;2023-09-07T10:24:33;101019.19;;;35.82;18.38
46291;BME280;32023;44.444;26.006;2023-09-07T10:27:11;101013.59;;;36.34;17.78
46291;BME280;32023;44.444;26.006;2023-09-07T10:29:52;101029.28;;;36.81;17.46
46291;BME280;32023;44.444;26.006;2023-09-07T10:32:20;101017.19;;;36.45;17.74
46291;BME280;32023;44.444;26.006;2023-09-07T10:34:47;101008.44;;;36.73;16.96
46291;BME280;32023;44.444;26.006;2023-09-07T10:37:16;101017.88;;;37.18;16.92
46291;BME280;32023;44.444;26.006;2023-09-07T10:39:45;101015.03;;;35.94;18.04
46291;BME280;32023;44.444;26.006;2023-09-07T10:42:25;101010.75;;;35.18;18.49
46291;BME280;32023;44.444;26.006;2023-09-07T10:45:15;101006.22;;;35.32;18.73
46291;BME280;32023;44.444;26.006;2023-09-07T10:47:56;101006.53;;;35.76;18.32
46291;BME280;32023;44.444;26.006;2023-09-07T10:51:00;101003.28;;;36.47;17.87
46291;BME280;32023;44.444;26.006;2023-09-07T10:53:33;101001.59;;;37.45;16.50
46291;BME280;32023;44.444;26.006;2023-09-07T10:56:04;101005.66;;;37.48;16.41
46291;BME280;32023;44.444;26.006;2023-09-07T10:58:37;100993.00;;;38.40;16.21
46291;BME280;32023;44.444;26.006;2023-09-07T11:01:19;100986.31;;;39.39;15.15
46291;BME280;32023;44.444;26.006;2023-09-07T11:03:46;100995.88;;;39.96;14.67
46291;BME280;32023;44.444;26.006;2023-09-07T11:06:14;100989.31;;;40.47;14.16
46291;BME280;32023;44.444;26.006;2023-09-07T11:08:48;100992.28;;;41.41;13.48
46291;BME280;32023;44.444;26.006;2023-09-07T11:11:18;100988.09;;;41.99;13.00
46291;BME280;32023;44.444;26.006;2023-09-07T11:13:53;100983.03;;;40.84;13.84
46291;BME280;32023;44.444;26.006;2023-09-07T11:16:32;100969.41;;;40.53;13.94
46291;BME280;32023;44.444;26.006;2023-09-07T11:19:06;100975.41;;;40.42;13.85
46291;BME280;32023;44.444;26.006;2023-09-07T11:21:35;100979.22;;;39.21;14.92
46291;BME280;32023;44.444;26.006;2023-09-07T11:24:04;100969.31;;;38.79;15.39
46291;BME280;32023;44.444;26.006;2023-09-07T11:26:44;100970.25;;;38.19;15.57
46291;BME280;32023;44.444;26.006;2023-09-07T11:29:16;100952.78;;;39.26;14.91
46291;BME280;32023;44.444;26.006;2023-09-07T11:31:45;100967.19;;;39.88;14.60
46291;BME280;32023;44.444;26.006;2023-09-07T11:37:39;100961.56;;;42.01;13.08
46291;BME280;32023;44.444;26.006;2023-09-07T11:40:09;100956.53;;;42.30;12.69
46291;BME280;32023;44.444;26.006;2023-09-07T11:42:38;100955.78;;;42.51;12.52
46291;BME280;32023;44.444;26.006;2023-09-07T11:45:13;100940.63;;;42.47;12.35
46291;BME280;32023;44.444;26.006;2023-09-07T11:47:40;100943.19;;;42.33;12.25
46291;BME280;32023;44.444;26.006;2023-09-07T11:50:09;100957.06;;;41.58;12.91
46291;BME280;32023;44.444;26.006;2023-09-07T11:52:39;100948.72;;;40.54;13.65
46291;BME280;32023;44.444;26.006;2023-09-07T11:55:16;100945.28;;;40.43;13.77
46291;BME280;32023;44.444;26.006;2023-09-07T11:57:51;100933.44;;;39.85;14.09
46291;BME280;32023;44.444;26.006;2023-09-07T12:00:32;100945.38;;;38.82;15.00
46291;BME280;32023;44.444;26.006;2023-09-07T12:02:59;100941.75;;;38.28;15.86
46291;BME280;32023;44.444;26.006;2023-09-07T12:05:30;100932.19;;;37.77;16.29
46291;BME280;32023;44.444;26.006;2023-09-07T12:08:06;100936.50;;;37.28;16.61
46291;BME280;32023;44.444;26.006;2023-09-07T12:10:50;100941.72;;;36.99;16.99
46291;BME280;32023;44.444;26.006;2023-09-07T12:20:14;100930.44;;;35.50;17.85
46291;BME280;32023;44.444;26.006;2023-09-07T12:23:20;100942.78;;;35.37;18.18
46291;BME280;32023;44.444;26.006;2023-09-07T12:26:11;100933.44;;;35.18;17.90
46291;BME280;32023;44.444;26.006;2023-09-07T12:28:54;100931.44;;;34.84;18.28
46291;BME280;32023;44.444;26.006;2023-09-07T12:31:23;100923.66;;;34.84;18.57
46291;BME280;32023;44.444;26.006;2023-09-07T12:34:05;100928.56;;;34.80;18.08
46291;BME280;32023;44.444;26.006;2023-09-07T12:36:37;100936.75;;;34.36;18.45
46291;BME280;32023;44.444;26.006;2023-09-07T12:39:11;100928.84;;;33.69;19.30
46291;BME280;32023;44.444;26.006;2023-09-07T12:41:39;100919.88;;;33.02;19.95
46291;BME280;32023;44.444;26.006;2023-09-07T12:44:08;100935.22;;;32.79;20.19
46291;BME280;32023;44.444;26.006;2023-09-07T12:46:35;100926.19;;;32.67;20.34
46291;BME280;32023;44.444;26.006;2023-09-07T12:49:03;100939.16;;;32.61;20.15
46291;BME280;32023;44.444;26.006;2023-09-07T12:51:32;100932.28;;;32.69;19.60
46291;BME280;32023;44.444;26.006;2023-09-07T12:54:07;100932.81;;;32.85;19.85
46291;BME280;32023;44.444;26.006;2023-09-07T12:56:36;100937.81;;;33.02;19.55
46291;BME280;32023;44.444;26.006;2023-09-07T12:59:10;100931.66;;;32.93;19.48
46291;BME280;32023;44.444;26.006;2023-09-07T13:01:40;100929.31;;;32.55;19.67
46291;BME280;32023;44.444;26.006;2023-09-07T13:04:12;100930.03;;;32.44;19.32
46291;BME280;32023;44.444;26.006;2023-09-07T13:06:38;100929.91;;;32.30;19.61
46291;BME280;32023;44.444;26.006;2023-09-07T13:09:08;100932.03;;;32.00;20.30
46291;BME280;32023;44.444;26.006;2023-09-07T13:11:55;100903.53;;;31.63;20.11
46291;BME280;32023;44.444;26.006;2023-09-07T13:15:06;100928.53;;;31.80;20.08
46291;BME280;32023;44.444;26.006;2023-09-07T13:21:54;100926.47;;;31.44;20.94
46291;BME280;32023;44.444;26.006;2023-09-07T13:28:01;100922.28;;;31.64;20.31
46291;BME280;32023;44.444;26.006;2023-09-07T13:30:32;100923.47;;;31.63;20.65
46291;BME280;32023;44.444;26.006;2023-09-07T13:40:02;100918.94;;;31.59;20.44